Latest Coastal Weather Observations for Milingimbi

IDD60701

Issued at 3:31 pm CST Friday 1 July 2016 (issued every 10 minutes, with the page automatically refreshed every 10 minutes)

About coastal observations | Map of coastal stations | Coastal observations for NT | Marine services | Other Formats
Station Details ID: 014404 Name: MILINGIMBI AIRPORT Lat: -12.09 Lon: 134.89 Height: 15.0 m
Data from the previous 72 hours. | See also: Recent months at Milingimbi
Date/Time
CST
Temp
°C
Wind Pressure Rain since
9am
mm
Weather Cloud Vis
km
Sea
Height
m
Swell
Dir  Spd
kts
Gust
kts
hPa Trend Height
m
Period
s
Dir
01/03:30pm 30.9 E 11 17 1012.5 - 0.0 - - - - - - -
01/03:00pm 31.5 ESE 10 15 1012.5 - 0.0 - - - - - - -
01/02:30pm 31.3 E 10 15 1012.7 - 0.0 - - - - - - -
01/02:00pm 31.5 ESE 9 15 1013.0 - 0.0 - - - - - - -
01/01:30pm 30.6 ESE 11 16 1013.5 - 0.0 - - - - - - -
01/01:00pm 30.1 ESE 14 20 1013.9 - 0.0 - - - - - - -
01/12:30pm 30.1 ESE 13 18 1014.5 - 0.0 - - - - - - -
01/12:00pm 29.6 ESE 14 19 1014.8 - 0.0 - - - - - - -
01/11:30am 28.9 ESE 11 17 1015.3 - 0.0 - - - - - - -
01/11:00am 29.4 ESE 14 19 1015.6 - 0.0 - - - - - - -
01/10:30am 28.0 SE 15 21 1015.8 - 0.0 - - - - - - -
01/10:00am 27.9 SE 13 18 1016.0 - 0.0 - - - - - - -
01/09:30am 27.0 SE 11 16 1016.1 - 0.0 - - - - - - -
01/09:00am 25.6 SE 11 15 1016.3 - 0.0 - - - - - - -
01/08:30am 24.3 SE 10 14 1016.4 - 0.0 - - - - - - -
01/08:00am 23.4 SE 9 13 1016.2 - 0.0 - - - - - - -
01/07:30am 22.0 SE 8 11 1015.8 - 0.0 - - - - - - -
01/07:00am 21.4 SSE 6 8 1015.6 - 0.0 - - - - - - -
01/06:30am 21.4 SSE 5 6 1015.4 - 0.0 - - - - - - -
01/06:00am 22.1 SSE 6 8 1015.0 - 0.0 - - - - - - -
01/05:30am 21.8 SSE 5 6 1014.9 - 0.0 - - - - - - -
01/05:00am 21.9 SSE 5 7 1014.7 - 0.0 - - - - - - -
01/04:30am 22.2 SSE 7 9 1014.4 - 0.0 - - - - - - -
01/04:00am 22.2 SSE 6 8 1014.3 - 0.0 - - - - - - -
01/03:30am 22.5 SSE 5 8 1014.3 - 0.0 - - - - - - -
01/03:00am 22.6 SSE 5 7 1014.2 - 0.0 - - - - - - -
01/02:30am 23.0 SSE 6 8 1014.4 - 0.0 - - - - - - -
01/02:00am 23.5 SSE 7 10 1014.6 - 0.0 - - - - - - -
01/01:30am 24.1 SE 8 11 1014.9 - 0.0 - - - - - - -
01/01:00am 24.0 SE 10 13 1015.1 - 0.0 - - - - - - -
01/12:30am 23.9 SE 7 9 1015.3 - 0.0 - - - - - - -
01/12:00am 24.2 SE 8 11 1015.3 - 0.0 - - - - - - -
 
Date/Time
CST
Temp
°C
Wind Pressure Rain since
9am
mm
Weather Cloud Vis
km
Sea
Height
m
Swell
Dir  Spd
kts
Gust
kts
hPa Trend Height
m
Period
s
Dir
30/11:30pm 24.6 SE 9 13 1015.5 - 0.0 - - - - - - -
30/11:00pm 24.9 SE 9 13 1015.5 - 0.0 - - - - - - -
30/10:30pm 25.1 SE 9 13 1015.6 - 0.0 - - - - - - -
30/10:00pm 25.5 SE 12 15 1015.6 - 0.0 - - - - - - -
30/09:30pm 25.9 SE 12 17 1015.5 - 0.0 - - - - - - -
30/09:00pm 26.2 SE 14 19 1015.2 - 0.0 - - - - - - -
30/08:30pm 26.7 SE 12 15 1014.9 - 0.0 - - - - - - -
30/08:00pm 27.2 ESE 13 17 1014.6 - 0.0 - - - - - - -
30/07:30pm 27.6 ESE 12 18 1014.3 - 0.0 - - - - - - -
30/07:00pm 28.1 SE 10 14 1013.7 - 0.0 - - - - - - -
30/06:30pm 28.3 ESE 10 14 1013.5 - 0.0 - - - - - - -
30/06:00pm 28.8 SE 11 14 1012.9 - 0.0 - - - - - - -
30/05:30pm 29.5 ESE 9 14 1012.6 - 0.0 - - - - - - -
30/05:00pm 30.5 ESE 12 17 1012.3 - 0.0 - - - - - - -
30/04:30pm 30.4 ESE 11 18 1012.2 - 0.0 - - - - - - -
30/04:00pm 30.1 E 10 15 1012.1 - 0.0 - - - - - - -
30/03:30pm 31.7 ESE 8 13 1012.1 - 0.0 - - - - - - -
30/03:00pm 30.8 E 8 12 1012.3 - 0.0 - - - - - - -
30/02:30pm 31.6 E 9 14 1012.5 - 0.0 - - - - - - -
30/02:00pm 31.9 E 11 16 1012.8 - 0.0 - - - - - - -
30/01:30pm 31.9 ESE 10 14 1013.4 - 0.0 - - - - - - -
30/01:00pm 30.7 E 11 16 1014.0 - 0.0 - - - - - - -
30/12:30pm 30.8 SE 13 17 1014.5 - 0.0 - - - - - - -
30/12:00pm 30.4 ESE 12 17 1014.9 - 0.0 - - - - - - -
30/11:30am 30.5 SE 14 21 1015.6 - 0.0 - - - - - - -
30/11:00am 29.7 SE 14 19 1016.0 - 0.0 - - - - - - -
30/10:30am 28.5 SE 14 20 1016.3 - 0.0 - - - - - - -
30/10:00am 27.6 SE 13 18 1016.8 - 0.0 - - - - - - -
30/09:30am 27.4 SE 11 16 1017.0 - 0.0 - - - - - - -
30/09:00am 26.6 SE 12 18 1016.6 - 0.0 - - - - - - -
30/08:30am 25.6 SSE 10 16 1016.5 - 0.0 - - - - - - -
30/08:00am 24.0 S 8 11 1016.2 - 0.0 - - - - - - -
30/07:30am 22.8 S 7 9 1015.9 - 0.0 - - - - - - -
30/07:00am 22.4 S 7 9 1015.4 - 0.0 - - - - - - -
30/06:30am 22.3 S 6 9 1015.2 - 0.0 - - - - - - -
30/06:00am 22.5 S 7 10 1014.9 - 0.0 - - - - - - -
30/05:30am 22.6 S 7 9 1014.9 - 0.0 - - - - - - -
30/05:00am 22.7 S 7 10 1014.8 - 0.0 - - - - - - -
30/04:30am 22.9 S 7 10 1014.7 - 0.0 - - - - - - -
30/04:00am 22.9 S 7 11 1014.7 - 0.0 - - - - - - -
30/03:30am 22.9 S 7 11 1014.8 - 0.0 - - - - - - -
30/03:00am 23.1 S 8 12 1014.8 - 0.0 - - - - - - -
30/02:30am 23.3 S 9 12 1015.0 - 0.0 - - - - - - -
30/02:00am 23.5 S 8 11 1015.2 - 0.0 - - - - - - -
30/01:30am 23.6 S 8 11 1015.3 - 0.0 - - - - - - -
30/01:00am 23.6 S 7 10 1015.6 - 0.0 - - - - - - -
30/12:30am 23.7 SSE 8 12 1015.6 - 0.0 - - - - - - -
30/12:00am 23.8 SSE 6 8 1015.7 - 0.0 - - - - - - -
 
Date/Time
CST
Temp
°C
Wind Pressure Rain since
9am
mm
Weather Cloud Vis
km
Sea
Height
m
Swell
Dir  Spd
kts
Gust
kts
hPa Trend Height
m
Period
s
Dir
29/11:30pm 24.1 SSE 7 9 1015.9 - 0.0 - - - - - - -
29/11:00pm 24.2 SE 7 9 1015.9 - 0.0 - - - - - - -
29/10:30pm 24.5 SE 7 10 1016.0 - 0.0 - - - - - - -
29/10:00pm 24.8 SE 9 12 1015.9 - 0.0 - - - - - - -
29/09:30pm 25.1 SE 8 11 1015.9 - 0.0 - - - - - - -
29/09:00pm 25.4 SE 8 12 1015.7 - 0.0 - - - - - - -
29/08:30pm 25.8 SE 9 13 1015.7 - 0.0 - - - - - - -
29/08:00pm 26.2 SE 9 13 1015.3 - 0.0 - - - - - - -
29/07:30pm 26.8 SE 9 13 1014.9 - 0.0 - - - - - - -
29/07:00pm 27.2 SE 9 14 1014.2 - 0.0 - - - - - - -
29/06:30pm 27.9 SE 10 14 1013.8 - 0.0 - - - - - - -
29/06:00pm 28.3 SE 10 15 1013.4 - 0.0 - - - - - - -
29/05:30pm 28.9 ESE 9 14 1013.2 - 0.0 - - - - - - -
29/05:00pm 29.9 ESE 11 16 1013.0 - 0.0 - - - - - - -
29/04:30pm 29.8 ESE 11 19 1012.7 - 0.0 - - - - - - -
29/04:00pm 30.6 ESE 12 17 1012.6 - 0.0 - - - - - - -
29/03:30pm 30.8 ESE 13 21 1012.8 - 0.0 - - - - - - -
29/03:00pm 31.1 ESE 13 18 1012.8 - 0.0 - - - - - - -
29/02:30pm 30.6 SE 15 21 1013.0 - 0.0 - - - - - - -
29/02:00pm 31.0 ESE 12 20 1013.3 - 0.0 - - - - - - -
29/01:30pm 30.5 ESE 15 22 1013.6 - 0.0 - - - - - - -
29/01:00pm 30.6 ESE 13 19 1014.1 - 0.0 - - - - - - -
29/12:30pm 30.3 ESE 13 20 1014.6 - 0.0 - - - - - - -
29/12:00pm 30.1 SE 15 21 1015.0 - 0.0 - - - - - - -
29/11:30am 29.0 ESE 16 22 1015.7 - 0.0 - - - - - - -
29/11:00am 29.4 SE 14 21 1016.0 - 0.0 - - - - - - -
29/10:30am 28.1 SSE 13 18 1016.3 - 0.0 - - - - - - -
29/10:00am 27.1 SE 14 20 1016.5 - 0.0 - - - - - - -
29/09:30am 26.1 SE 16 23 1016.7 - 0.0 - - - - - - -
29/09:00am 25.5 SSE 14 20 1016.6 - 0.0 - - - - - - -
29/08:30am 24.4 SSE 11 17 1016.6 - 0.0 - - - - - - -
29/08:00am 23.3 SSE 9 13 1016.4 - 0.0 - - - - - - -
29/07:30am 22.4 SSE 9 12 1016.2 - 0.0 - - - - - - -
29/07:00am 22.2 SSE 8 11 1016.1 - 0.0 - - - - - - -
29/06:30am 22.2 SSE 8 10 1015.7 - 0.0 - - - - - - -
29/06:00am 22.7 SSE 8 12 1015.5 - 0.0 - - - - - - -
29/05:30am 22.5 SSE 8 11 1015.2 - 0.0 - - - - - - -
29/05:00am 22.3 SSE 7 9 1015.0 - 0.0 - - - - - - -
29/04:30am 22.0 S 7 9 1014.8 - 0.0 - - - - - - -
29/04:00am 21.9 S 6 9 1014.9 - 0.0 - - - - - - -
29/03:30am 22.0 S 5 7 1015.0 - 0.0 - - - - - - -
29/03:00am 22.2 S 7 10 1015.0 - 0.0 - - - - - - -
29/02:30am 22.4 S 7 9 1015.3 - 0.0 - - - - - - -
29/02:00am 22.7 S 8 11 1015.5 - 0.0 - - - - - - -
29/01:30am 23.0 SSE 8 13 1015.8 - 0.0 - - - - - - -
29/01:00am 23.2 SSE 7 10 1015.9 - 0.0 - - - - - - -
29/12:30am 23.5 SSE 8 11 1016.2 - 0.0 - - - - - - -
29/12:00am 24.1 SSE 10 14 1016.1 - 0.0 - - - - - - -
 
Date/Time
CST
Temp
°C
Wind Pressure Rain since
9am
mm
Weather Cloud Vis
km
Sea
Height
m
Swell
Dir  Spd
kts
Gust
kts
hPa Trend Height
m
Period
s
Dir
28/11:30pm 24.4 SSE 9 13 1016.1 - 0.0 - - - - - - -
28/11:00pm 24.4 SSE 9 12 1016.3 - 0.0 - - - - - - -
28/10:30pm 24.5 SSE 7 10 1016.2 - 0.0 - - - - - - -
28/10:00pm 24.9 SSE 10 14 1016.2 - 0.0 - - - - - - -
28/09:30pm 25.2 SE 12 18 1016.2 - 0.0 - - - - - - -
28/09:00pm 25.6 SE 13 18 1015.9 - 0.0 - - - - - - -
28/08:30pm 26.0 SE 13 18 1015.6 - 0.0 - - - - - - -
28/08:00pm 26.4 SE 10 14 1015.1 - 0.0 - - - - - - -
28/07:30pm 27.0 SE 13 16 1014.7 - 0.0 - - - - - - -
28/07:00pm 27.7 SE 14 19 1014.2 - 0.0 - - - - - - -
28/06:30pm 28.3 SE 12 17 1013.9 - 0.0 - - - - - - -
28/06:00pm 29.0 SE 14 18 1013.3 - 0.0 - - - - - - -
28/05:30pm 30.1 SE 14 19 1012.9 - 0.0 - - - - - - -
28/05:00pm 31.0 SE 13 19 1012.5 - 0.0 - - - - - - -
28/04:30pm 31.3 ESE 15 22 1012.1 - 0.0 - - - - - - -
28/04:00pm 32.1 ESE 14 22 1012.0 - 0.0 - - - - - - -

Other Formats:

Comma delimited format used in spreadsheet applications
http://www.bom.gov.au/fwo/IDD60701/IDD60701.94140.axf

JavaScript Object Notation format (JSON) in row-major order
http://www.bom.gov.au/fwo/IDD60701/IDD60701.94140.json